Time;durP1;ratioP1;P1;durP2;ratioP2;P2;SDS_P1;SDS_P2;PMS_P1;PMS_P2;Temp;Humidity;BMP_temperature;BMP_pressure;BME280_temperature;BME280_humidity;BME280_pressure;Samples;Min_cycle;Max_cycle;Signal;HPM_P1;HPM_P2
2022/02/24 00:00:04;;;;;;;0.00;0.00;;;;;20.60;100525.00;;;;4837878;29;20114;-77
2022/02/24 00:02:39;;;;;;;0.00;0.00;;;;;20.60;100546.00;;;;4837373;29;20061;-77
2022/02/24 00:05:10;;;;;;;0.25;0.25;;;;;20.50;100542.00;;;;4837630;29;20057;-81
2022/02/24 00:07:40;;;;;;;0.00;0.00;;;;;20.40;100553.00;;;;4836429;29;20045;-78
2022/02/24 00:10:11;;;;;;;0.00;0.00;;;;;20.40;100561.00;;;;4836992;29;20061;-80
2022/02/24 00:12:42;;;;;;;0.00;0.00;;;;;20.40;100554.00;;;;4837696;29;20141;-80
2022/02/24 00:15:11;;;;;;;0.00;0.00;;;;;20.30;100561.00;;;;4837188;29;20079;-80
2022/02/24 00:17:43;;;;;;;0.00;0.00;;;;;20.30;100554.00;;;;4837804;29;20514;-81
2022/02/24 00:20:13;;;;;;;0.05;0.05;;;;;20.20;100572.00;;;;4835721;29;20092;-80
2022/02/24 00:22:43;;;;;;;0.00;0.00;;;;;20.10;100558.00;;;;4837639;29;20114;-80
2022/02/24 00:25:12;;;;;;;0.00;0.00;;;;;20.10;100575.00;;;;4836937;29;20054;-78
2022/02/24 00:27:42;;;;;;;0.00;0.00;;;;;20.00;100576.00;;;;4836728;29;20057;-81
2022/02/24 00:30:11;;;;;;;0.10;0.10;;;;;19.90;100578.00;;;;4835471;29;20114;-81
2022/02/24 00:32:40;;;;;;;0.00;0.00;;;;;19.90;100578.00;;;;4836835;29;20434;-79
2022/02/24 00:35:11;;;;;;;0.00;0.00;;;;;19.90;100579.00;;;;4836924;29;20038;-78
2022/02/24 00:37:41;;;;;;;;;;;;;20.00;100582.00;;;;4844803;29;20654;-77
2022/02/24 00:40:12;;;;;;;0.00;0.00;;;;;19.90;100571.00;;;;4838101;29;19924;-77
2022/02/24 00:42:41;;;;;;;0.00;0.00;;;;;20.00;100581.00;;;;4838313;29;20058;-78
2022/02/24 00:45:11;;;;;;;0.00;0.00;;;;;20.10;100571.00;;;;4836496;29;20478;-79
2022/02/24 00:47:40;;;;;;;0.00;0.00;;;;;20.10;100574.00;;;;4836475;29;20512;-77
2022/02/24 00:50:10;;;;;;;0.10;0.10;;;;;20.50;100581.00;;;;4836310;29;20057;-79
2022/02/24 00:52:39;;;;;;;0.00;0.00;;;;;20.80;100596.00;;;;4836028;29;20069;-79
2022/02/24 00:55:09;;;;;;;0.00;0.00;;;;;21.00;100600.00;;;;4835288;29;20057;-79
2022/02/24 00:57:38;;;;;;;0.00;0.00;;;;;21.00;100580.00;;;;4836166;29;20041;-79
2022/02/24 01:00:08;;;;;;;0.00;0.00;;;;;20.80;100598.00;;;;4836998;29;20045;-79
2022/02/24 01:02:38;;;;;;;0.00;0.00;;;;;21.10;100588.00;;;;4836670;29;20467;-79
2022/02/24 01:05:08;;;;;;;0.00;0.00;;;;;21.30;100583.00;;;;4835829;29;20498;-79
2022/02/24 01:07:37;;;;;;;0.00;0.00;;;;;21.30;100597.00;;;;4836366;29;20046;-80
2022/02/24 01:10:09;;;;;;;0.00;0.00;;;;;21.20;100595.00;;;;4836355;29;20433;-78
2022/02/24 01:12:39;;;;;;;0.00;0.00;;;;;21.10;100592.00;;;;4835651;29;20061;-79
2022/02/24 01:15:11;;;;;;;0.00;0.00;;;;;20.90;100595.00;;;;4835142;29;20050;-79
2022/02/24 01:17:45;;;;;;;0.00;0.00;;;;;20.80;100600.00;;;;4834861;29;20430;-78
2022/02/24 01:20:15;;;;;;;0.00;0.00;;;;;20.70;100598.00;;;;4834288;29;20052;-79
2022/02/24 01:22:45;;;;;;;0.00;0.00;;;;;20.60;100603.00;;;;4835270;29;20037;-77
2022/02/24 01:25:14;;;;;;;0.00;0.00;;;;;20.40;100614.00;;;;4834313;29;20122;-77
2022/02/24 01:27:44;;;;;;;0.00;0.00;;;;;20.40;100596.00;;;;4836768;29;20058;-78
2022/02/24 01:30:14;;;;;;;0.00;0.00;;;;;20.30;100600.00;;;;4836437;29;20046;-77
2022/02/24 01:32:44;;;;;;;0.00;0.00;;;;;20.10;100616.00;;;;4836352;29;20062;-77
2022/02/24 01:35:13;;;;;;;0.00;0.00;;;;;20.00;100603.00;;;;4836492;29;20050;-77
2022/02/24 01:37:44;;;;;;;0.00;0.00;;;;;19.90;100607.00;;;;4834898;29;20078;-77
2022/02/24 01:40:16;;;;;;;0.00;0.00;;;;;19.90;100601.00;;;;4835894;29;20058;-77
2022/02/24 01:42:46;;;;;;;0.00;0.00;;;;;19.80;100598.00;;;;4835703;29;20718;-78
2022/02/24 01:45:16;;;;;;;0.00;0.00;;;;;19.70;100600.00;;;;4835932;29;20058;-76
2022/02/24 01:47:45;;;;;;;0.00;0.00;;;;;19.60;100593.00;;;;4836347;29;20058;-77
2022/02/24 01:50:15;;;;;;;0.00;0.00;;;;;19.60;100589.00;;;;4834845;29;20406;-76
2022/02/24 01:52:44;;;;;;;0.00;0.00;;;;;19.50;100596.00;;;;4835127;29;20505;-77
2022/02/24 01:55:14;;;;;;;0.00;0.00;;;;;19.50;100597.00;;;;4835723;29;20062;-77
2022/02/24 01:57:43;;;;;;;0.00;0.00;;;;;19.50;100599.00;;;;4836070;29;20696;-76
2022/02/24 02:00:14;;;;;;;0.00;0.00;;;;;19.40;100592.00;;;;4836500;29;20049;-77
2022/02/24 02:02:43;;;;;;;0.00;0.00;;;;;19.40;100576.00;;;;4835856;29;20054;-77
2022/02/24 02:05:13;;;;;;;0.00;0.00;;;;;19.30;100582.00;;;;4835920;29;20201;-78
2022/02/24 02:07:42;;;;;;;0.00;0.00;;;;;19.30;100582.00;;;;4834677;29;20058;-78
2022/02/24 02:10:12;;;;;;;0.00;0.00;;;;;19.20;100603.00;;;;4838487;29;20049;-78
2022/02/24 02:13:01;;;;;;;0.00;0.00;;;;;19.30;100602.00;;;;4838853;29;20841;-79
2022/02/24 02:15:31;;;;;;;0.00;0.00;;;;;19.30;100579.00;;;;4838523;29;20068;-78
2022/02/24 02:18:00;;;;;;;0.00;0.00;;;;;19.30;100589.00;;;;4836893;29;20068;-77
2022/02/24 02:20:36;;;;;;;0.00;0.00;;;;;19.70;100600.00;;;;4838069;29;20106;-78
2022/02/24 02:23:06;;;;;;;0.00;0.00;;;;;19.70;100590.00;;;;4832104;29;20045;-78
2022/02/24 02:25:35;;;;;;;0.00;0.00;;;;;19.70;100588.00;;;;4837763;29;20054;-77
2022/02/24 02:28:05;;;;;;;0.00;0.00;;;;;19.60;100607.00;;;;4839356;29;20124;-77
2022/02/24 02:30:35;;;;;;;0.00;0.00;;;;;19.50;100589.00;;;;4837184;29;20060;-79
2022/02/24 02:33:04;;;;;;;0.00;0.00;;;;;19.40;100589.00;;;;4838618;29;20133;-77
2022/02/24 02:35:34;;;;;;;0.00;0.00;;;;;19.30;100586.00;;;;4839210;29;20053;-78
2022/02/24 02:38:06;;;;;;;0.00;0.00;;;;;19.20;100592.00;;;;4839289;29;20062;-78
2022/02/24 02:40:38;;;;;;;0.00;0.00;;;;;19.20;100601.00;;;;4839453;29;20054;-77
2022/02/24 02:43:09;;;;;;;0.00;0.00;;;;;19.30;100595.00;;;;4838697;29;20182;-78
2022/02/24 02:45:39;;;;;;;0.00;0.00;;;;;19.20;100590.00;;;;4838770;29;20537;-78
2022/02/24 02:48:09;;;;;;;0.00;0.00;;;;;19.00;100591.00;;;;4838696;29;20101;-77
2022/02/24 02:50:38;;;;;;;0.00;0.00;;;;;18.90;100595.00;;;;4838653;29;20528;-77
2022/02/24 02:53:07;;;;;;;0.00;0.00;;;;;18.90;100589.00;;;;4839182;29;20081;-78
2022/02/24 02:55:37;;;;;;;0.35;0.20;;;;;18.80;100588.00;;;;4838246;29;20623;-77
2022/02/24 02:58:06;;;;;;;0.00;0.00;;;;;18.70;100574.00;;;;4838684;29;20459;-77
2022/02/24 03:00:36;;;;;;;0.00;0.00;;;;;18.70;100593.00;;;;4837604;29;20412;-77
2022/02/24 03:03:05;;;;;;;0.00;0.00;;;;;18.60;100594.00;;;;4838701;29;20478;-77
2022/02/24 03:05:36;;;;;;;0.00;0.00;;;;;18.60;100577.00;;;;4838658;29;20045;-77
2022/02/24 03:08:07;;;;;;;0.00;0.00;;;;;18.50;100583.00;;;;4838214;29;20062;-77
2022/02/24 03:10:37;;;;;;;0.00;0.00;;;;;18.50;100579.00;;;;4847057;29;20050;-78
2022/02/24 03:13:07;;;;;;;0.00;0.00;;;;;18.40;100571.00;;;;4843816;29;20061;-78
2022/02/24 03:15:36;;;;;;;0.00;0.00;;;;;18.40;100593.00;;;;4837125;29;20054;-79
2022/02/24 03:18:06;;;;;;;0.32;0.32;;;;;18.40;100582.00;;;;4838610;29;20042;-77
2022/02/24 03:20:35;;;;;;;0.00;0.00;;;;;18.30;100583.00;;;;4836659;29;20130;-77
2022/02/24 03:23:07;;;;;;;0.00;0.00;;;;;18.30;100560.00;;;;4838571;29;20141;-78
2022/02/24 03:25:38;;;;;;;0.00;0.00;;;;;18.20;100567.00;;;;4838446;29;20102;-79
2022/02/24 03:28:08;;;;;;;0.00;0.00;;;;;18.30;100557.00;;;;4838808;29;20054;-79
2022/02/24 03:30:39;;;;;;;0.00;0.00;;;;;18.20;100573.00;;;;4838066;29;20049;-77
2022/02/24 03:33:09;;;;;;;0.00;0.00;;;;;18.20;100570.00;;;;4837721;29;20550;-78
2022/02/24 03:35:38;;;;;;;0.00;0.00;;;;;18.20;100567.00;;;;4838182;29;20425;-78
2022/02/24 03:38:08;;;;;;;0.00;0.00;;;;;18.20;100555.00;;;;4838287;29;20042;-78
2022/02/24 03:40:37;;;;;;;0.00;0.00;;;;;18.20;100570.00;;;;4838405;29;20054;-77
2022/02/24 03:43:07;;;;;;;0.00;0.00;;;;;18.10;100561.00;;;;4838281;29;20054;-78
2022/02/24 03:45:38;;;;;;;0.00;0.00;;;;;18.10;100559.00;;;;4837922;29;20057;-78
2022/02/24 03:48:07;;;;;;;0.00;0.00;;;;;18.10;100559.00;;;;4836940;29;20417;-78
2022/02/24 03:50:37;;;;;;;0.00;0.00;;;;;18.20;100547.00;;;;4838125;29;20042;-78
2022/02/24 03:53:06;;;;;;;0.00;0.00;;;;;18.20;100550.00;;;;4837745;29;20102;-78
2022/02/24 03:55:36;;;;;;;0.00;0.00;;;;;18.10;100540.00;;;;4838132;29;20046;-78
2022/02/24 03:58:05;;;;;;;0.00;0.00;;;;;18.10;100547.00;;;;4837377;29;20110;-78
2022/02/24 04:00:35;;;;;;;0.00;0.00;;;;;18.10;100543.00;;;;4837894;29;20053;-79
2022/02/24 04:03:05;;;;;;;0.00;0.00;;;;;18.10;100543.00;;;;4838154;29;20128;-78
2022/02/24 04:05:34;;;;;;;0.00;0.00;;;;;18.00;100540.00;;;;4837488;29;20096;-79
2022/02/24 04:08:05;;;;;;;0.00;0.00;;;;;18.10;100536.00;;;;4837710;29;20049;-78
2022/02/24 04:10:34;;;;;;;0.00;0.00;;;;;18.00;100530.00;;;;4837907;29;20069;-78
2022/02/24 04:13:04;;;;;;;0.00;0.00;;;;;18.00;100526.00;;;;4837426;29;20152;-78
2022/02/24 04:15:36;;;;;;;0.00;0.00;;;;;18.00;100518.00;;;;4837606;29;20058;-78
2022/02/24 04:18:08;;;;;;;0.00;0.00;;;;;18.00;100517.00;;;;4836239;29;20515;-78
2022/02/24 04:20:37;;;;;;;0.00;0.00;;;;;18.00;100511.00;;;;4836261;29;20521;-79
2022/02/24 04:23:07;;;;;;;0.00;0.00;;;;;18.00;100516.00;;;;4835860;29;20429;-78
2022/02/24 04:25:39;;;;;;;0.00;0.00;;;;;18.00;100498.00;;;;4837518;29;20054;-79
2022/02/24 04:28:10;;;;;;;0.00;0.00;;;;;18.00;100499.00;;;;4837801;29;20178;-79
2022/02/24 04:30:40;;;;;;;0.00;0.00;;;;;18.00;100496.00;;;;4837550;29;20056;-78
2022/02/24 04:33:12;;;;;;;0.00;0.00;;;;;18.00;100503.00;;;;4837037;29;20041;-78
2022/02/24 04:35:41;;;;;;;0.00;0.00;;;;;18.00;100506.00;;;;4838139;29;20382;-78
2022/02/24 04:38:13;;;;;;;0.00;0.00;;;;;17.90;100490.00;;;;4837543;29;20053;-78
2022/02/24 04:40:42;;;;;;;0.00;0.00;;;;;17.90;100491.00;;;;4835517;29;20057;-78
2022/02/24 04:43:13;;;;;;;;;;;;;17.90;100504.00;;;;4837121;29;20125;-78
2022/02/24 04:45:43;;;;;;;0.00;0.00;;;;;17.70;100507.00;;;;4836575;29;19947;-79
2022/02/24 04:48:15;;;;;;;0.00;0.00;;;;;17.70;100502.00;;;;4836750;29;20050;-77
2022/02/24 04:50:45;;;;;;;0.00;0.00;;;;;17.70;100498.00;;;;4836148;29;20068;-78
2022/02/24 04:53:17;;;;;;;0.00;0.00;;;;;17.70;100493.00;;;;4836904;29;20124;-78
2022/02/24 04:55:46;;;;;;;0.00;0.00;;;;;17.70;100493.00;;;;4835409;29;20510;-78
2022/02/24 04:58:18;;;;;;;0.00;0.00;;;;;17.70;100502.00;;;;4836420;29;20042;-79
2022/02/24 05:00:48;;;;;;;0.00;0.00;;;;;17.60;100496.00;;;;4837173;29;20111;-78
2022/02/24 05:03:19;;;;;;;0.00;0.00;;;;;17.60;100493.00;;;;4836796;29;20057;-78
2022/02/24 05:05:49;;;;;;;0.00;0.00;;;;;17.60;100499.00;;;;4836513;29;20525;-77
2022/02/24 05:08:20;;;;;;;0.00;0.00;;;;;17.50;100490.00;;;;4836218;29;20125;-79
2022/02/24 05:10:51;;;;;;;0.00;0.00;;;;;17.50;100485.00;;;;4836166;29;20054;-78
2022/02/24 05:13:22;;;;;;;0.00;0.00;;;;;17.50;100480.00;;;;4834151;29;20065;-78
2022/02/24 05:15:51;;;;;;;0.00;0.00;;;;;17.50;100476.00;;;;4836819;29;20069;-78
2022/02/24 05:18:23;;;;;;;0.00;0.00;;;;;17.50;100494.00;;;;4836313;29;20050;-78
2022/02/24 05:20:53;;;;;;;0.00;0.00;;;;;17.50;100478.00;;;;4836026;29;20437;-78
2022/02/24 05:23:24;;;;;;;0.00;0.00;;;;;17.60;100479.00;;;;4836345;29;20042;-78
2022/02/24 05:25:54;;;;;;;0.00;0.00;;;;;17.60;100486.00;;;;4836337;29;20057;-78
2022/02/24 05:28:26;;;;;;;0.00;0.00;;;;;17.70;100483.00;;;;4836300;29;20042;-78
2022/02/24 05:30:59;;;;;;;0.00;0.00;;;;;17.70;100466.00;;;;4836688;29;20367;-78
2022/02/24 05:33:30;;;;;;;0.00;0.00;;;;;17.70;100465.00;;;;4836406;29;20042;-78
2022/02/24 05:36:03;;;;;;;0.00;0.00;;;;;17.70;100473.00;;;;4835655;29;20045;-78
2022/02/24 05:38:33;;;;;;;0.00;0.00;;;;;17.70;100491.00;;;;4836699;29;20053;-78
2022/02/24 05:41:03;;;;;;;0.00;0.00;;;;;17.60;100481.00;;;;4836363;29;20076;-78
2022/02/24 05:43:32;;;;;;;0.00;0.00;;;;;17.40;100479.00;;;;4836218;29;20155;-78
2022/02/24 05:46:02;;;;;;;0.00;0.00;;;;;17.40;100475.00;;;;4835741;29;20060;-78
2022/02/24 05:48:32;;;;;;;0.00;0.00;;;;;17.40;100468.00;;;;4836890;29;20053;-78
2022/02/24 05:51:01;;;;;;;0.00;0.00;;;;;17.40;100485.00;;;;4846291;29;20058;-77
2022/02/24 05:53:31;;;;;;;0.00;0.00;;;;;17.40;100480.00;;;;4839400;29;20049;-78
2022/02/24 05:56:01;;;;;;;0.00;0.00;;;;;17.40;100484.00;;;;4836366;29;20486;-78
2022/02/24 05:58:31;;;;;;;0.00;0.00;;;;;17.40;100492.00;;;;4836021;29;20054;-78
2022/02/24 06:01:00;;;;;;;0.00;0.00;;;;;17.30;100472.00;;;;4834623;29;20057;-78
2022/02/24 06:03:30;;;;;;;0.00;0.00;;;;;17.30;100481.00;;;;4835713;29;20057;-78
2022/02/24 06:06:00;;;;;;;0.00;0.00;;;;;17.30;100481.00;;;;4836228;29;20072;-77
2022/02/24 06:08:30;;;;;;;0.00;0.00;;;;;17.30;100474.00;;;;4834858;29;20050;-77
2022/02/24 06:10:59;;;;;;;0.00;0.00;;;;;17.30;100487.00;;;;4835819;29;20049;-78
2022/02/24 06:13:28;;;;;;;0.00;0.00;;;;;17.20;100473.00;;;;4835084;29;20077;-78
2022/02/24 06:15:59;;;;;;;0.00;0.00;;;;;17.20;100473.00;;;;4834532;29;20414;-78
2022/02/24 06:18:29;;;;;;;0.00;0.00;;;;;17.20;100464.00;;;;4835733;29;20422;-79
2022/02/24 06:21:00;;;;;;;0.00;0.00;;;;;17.10;100473.00;;;;4835633;29;20046;-78
2022/02/24 06:23:29;;;;;;;0.00;0.00;;;;;17.10;100484.00;;;;4835659;29;20302;-78
2022/02/24 06:25:59;;;;;;;0.00;0.00;;;;;17.10;100487.00;;;;4834989;29;20049;-78
2022/02/24 06:28:31;;;;;;;0.00;0.00;;;;;17.10;100477.00;;;;4835733;29;20443;-78
2022/02/24 06:31:01;;;;;;;0.00;0.00;;;;;17.00;100476.00;;;;4836103;29;20048;-78
2022/02/24 06:33:30;;;;;;;0.00;0.00;;;;;17.00;100485.00;;;;4836084;29;20038;-78
2022/02/24 06:36:00;;;;;;;0.00;0.00;;;;;17.00;100476.00;;;;4835417;29;20060;-78
2022/02/24 06:38:29;;;;;;;0.00;0.00;;;;;17.00;100485.00;;;;4834246;29;20422;-78
2022/02/24 06:40:59;;;;;;;0.00;0.00;;;;;17.00;100482.00;;;;4836007;29;20381;-78
2022/02/24 06:43:28;;;;;;;0.00;0.00;;;;;17.00;100484.00;;;;4835518;29;20052;-78
2022/02/24 06:46:00;;;;;;;0.00;0.00;;;;;17.00;100480.00;;;;4835333;29;20050;-77
2022/02/24 06:48:29;;;;;;;0.00;0.00;;;;;16.90;100482.00;;;;4835530;29;20474;-78
2022/02/24 06:51:01;;;;;;;0.00;0.00;;;;;16.90;100488.00;;;;4835331;29;20049;-77
2022/02/24 06:53:34;;;;;;;0.00;0.00;;;;;16.70;100479.00;;;;4835762;29;20276;-77
2022/02/24 06:56:04;;;;;;;0.00;0.00;;;;;16.80;100472.00;;;;4836713;29;20046;-78
2022/02/24 06:58:34;;;;;;;0.00;0.00;;;;;16.80;100469.00;;;;4839045;29;20046;-78
2022/02/24 07:01:04;;;;;;;0.00;0.00;;;;;16.80;100466.00;;;;4839734;29;20057;-78
2022/02/24 07:03:34;;;;;;;0.00;0.00;;;;;16.80;100452.00;;;;4838499;29;20122;-78
2022/02/24 07:06:06;;;;;;;0.00;0.00;;;;;16.80;100460.00;;;;4838835;29;20046;-78
2022/02/24 07:08:35;;;;;;;0.00;0.00;;;;;16.90;100450.00;;;;4838103;29;20663;-78
2022/02/24 07:11:06;;;;;;;0.00;0.00;;;;;16.90;100438.00;;;;4837203;29;20053;-79
2022/02/24 07:13:36;;;;;;;0.00;0.00;;;;;16.90;100453.00;;;;4836842;29;20065;-78
2022/02/24 07:16:25;;;;;;;0.00;0.00;;;;;16.90;100462.00;;;;4838146;29;20129;-78
2022/02/24 07:18:55;;;;;;;0.00;0.00;;;;;17.00;100463.00;;;;4838321;29;20140;-78
2022/02/24 07:21:24;;;;;;;0.00;0.00;;;;;17.00;100458.00;;;;4838550;29;20078;-78
2022/02/24 07:23:54;;;;;;;0.00;0.00;;;;;16.90;100449.00;;;;4839009;29;20046;-78
2022/02/24 07:26:23;;;;;;;0.00;0.00;;;;;16.90;100476.00;;;;4838603;29;20050;-78
2022/02/24 07:28:52;;;;;;;0.00;0.00;;;;;16.80;100479.00;;;;4838575;29;20056;-77
2022/02/24 07:31:23;;;;;;;0.00;0.00;;;;;16.80;100465.00;;;;4838044;29;20046;-78
2022/02/24 07:33:52;;;;;;;0.00;0.00;;;;;16.80;100477.00;;;;4838319;29;20046;-78
2022/02/24 07:36:21;;;;;;;0.00;0.00;;;;;16.80;100477.00;;;;4838467;29;20104;-78
2022/02/24 07:38:51;;;;;;;0.00;0.00;;;;;16.90;100501.00;;;;4837758;29;20050;-78
2022/02/24 07:41:20;;;;;;;0.00;0.00;;;;;16.80;100490.00;;;;4838316;29;20049;-78
2022/02/24 07:43:50;;;;;;;0.00;0.00;;;;;16.80;100497.00;;;;4838057;29;20074;-79
2022/02/24 07:46:19;;;;;;;0.00;0.00;;;;;17.00;100505.00;;;;4838032;29;20057;-79
2022/02/24 07:48:52;;;;;;;0.00;0.00;;;;;16.90;100487.00;;;;4838000;29;20054;-78
2022/02/24 07:51:21;;;;;;;0.00;0.00;;;;;16.90;100509.00;;;;4838066;29;20553;-78
2022/02/24 07:53:50;;;;;;;0.00;0.00;;;;;16.90;100504.00;;;;4837866;29;20054;-78
2022/02/24 07:56:20;;;;;;;0.00;0.00;;;;;16.90;100512.00;;;;4837936;29;20046;-79
2022/02/24 07:58:50;;;;;;;0.00;0.00;;;;;17.00;100509.00;;;;4837737;29;20050;-79
2022/02/24 08:01:23;;;;;;;0.00;0.00;;;;;16.90;100507.00;;;;4837210;29;20049;-79
2022/02/24 08:03:53;;;;;;;0.00;0.00;;;;;16.80;100505.00;;;;4837622;29;20132;-78
2022/02/24 08:06:23;;;;;;;0.00;0.00;;;;;16.70;100510.00;;;;4837335;29;20061;-78
2022/02/24 08:08:52;;;;;;;0.00;0.00;;;;;16.70;100516.00;;;;4838487;29;20050;-79
2022/02/24 08:11:21;;;;;;;0.00;0.00;;;;;16.60;100513.00;;;;4837253;29;20049;-79
2022/02/24 08:13:51;;;;;;;0.00;0.00;;;;;16.50;100507.00;;;;4837362;29;20058;-79
2022/02/24 08:16:21;;;;;;;0.00;0.00;;;;;16.40;100491.00;;;;4837597;29;21100;-78
2022/02/24 08:18:51;;;;;;;0.35;0.35;;;;;16.30;100507.00;;;;4837417;29;20057;-79
2022/02/24 08:21:23;;;;;;;0.20;0.20;;;;;16.30;100498.00;;;;4838140;29;20049;-78
2022/02/24 08:23:53;;;;;;;0.00;0.00;;;;;16.30;100495.00;;;;4835930;29;20061;-78
2022/02/24 08:26:25;;;;;;;0.00;0.00;;;;;16.20;100475.00;;;;4836946;29;20596;-78
2022/02/24 08:28:55;;;;;;;;;;;;;16.10;100481.00;;;;4837448;29;20066;-78
2022/02/24 08:31:26;;;;;;;0.00;0.00;;;;;16.00;100476.00;;;;4840736;29;19936;-79
2022/02/24 08:33:56;;;;;;;0.00;0.00;;;;;16.00;100490.00;;;;4850121;29;20050;-79
2022/02/24 08:36:26;;;;;;;0.00;0.00;;;;;15.90;100502.00;;;;4851560;29;20048;-79
2022/02/24 08:38:56;;;;;;;0.00;0.00;;;;;15.90;100508.00;;;;4842122;29;20053;-81
2022/02/24 08:41:40;;;;;;;0.00;0.00;;;;;15.80;100510.00;;;;4837367;29;20491;-79
2022/02/24 08:44:10;;;;;;;0.00;0.00;;;;;15.80;100499.00;;;;4835956;29;20073;-79
2022/02/24 08:46:44;;;;;;;0.00;0.00;;;;;15.80;100501.00;;;;4836660;29;20058;-79
2022/02/24 08:49:14;;;;;;;0.00;0.00;;;;;15.80;100493.00;;;;4836665;29;20046;-78
2022/02/24 08:51:43;;;;;;;0.00;0.00;;;;;15.70;100509.00;;;;4835435;29;20066;-79
2022/02/24 08:54:14;;;;;;;0.00;0.00;;;;;15.60;100510.00;;;;4836840;29;20050;-79
2022/02/24 08:56:44;;;;;;;;;;;;;15.70;100516.00;;;;4837068;29;20164;-79
2022/02/24 08:59:14;;;;;;;0.00;0.00;;;;;15.60;100504.00;;;;4837189;29;19976;-78
2022/02/24 09:01:44;;;;;;;0.00;0.00;;;;;15.60;100507.00;;;;4835704;29;20057;-79
2022/02/24 09:04:15;;;;;;;0.00;0.00;;;;;15.50;100509.00;;;;4836925;29;20058;-79
2022/02/24 09:06:46;;;;;;;0.00;0.00;;;;;15.50;100515.00;;;;4837374;29;20523;-78
2022/02/24 09:09:16;;;;;;;0.00;0.00;;;;;15.50;100512.00;;;;4836496;29;20042;-79
2022/02/24 09:11:45;;;;;;;0.00;0.00;;;;;15.50;100527.00;;;;4836487;29;20064;-80
2022/02/24 09:14:15;;;;;;;0.00;0.00;;;;;15.50;100540.00;;;;4836753;29;20414;-79
2022/02/24 09:16:45;;;;;;;0.00;0.00;;;;;15.50;100534.00;;;;4835573;29;20053;-79
2022/02/24 09:19:14;;;;;;;0.00;0.00;;;;;15.50;100524.00;;;;4834602;29;20077;-79
2022/02/24 09:21:44;;;;;;;0.00;0.00;;;;;15.70;100535.00;;;;4836416;29;20076;-78
2022/02/24 09:24:14;;;;;;;0.00;0.00;;;;;15.80;100551.00;;;;4836726;29;20064;-79
2022/02/24 09:26:43;;;;;;;0.00;0.00;;;;;15.80;100552.00;;;;4835948;29;20049;-79
2022/02/24 09:29:14;;;;;;;0.00;0.00;;;;;15.80;100553.00;;;;4836216;29;20098;-78
2022/02/24 09:31:44;;;;;;;0.00;0.00;;;;;15.70;100549.00;;;;4835076;29;20446;-79
2022/02/24 09:34:15;;;;;;;0.00;0.00;;;;;15.70;100540.00;;;;4835979;29;20065;-79
2022/02/24 09:36:45;;;;;;;0.00;0.00;;;;;15.80;100539.00;;;;4834901;29;20050;-79
2022/02/24 09:39:15;;;;;;;0.00;0.00;;;;;15.80;100551.00;;;;4836319;29;20508;-78
2022/02/24 09:41:48;;;;;;;0.00;0.00;;;;;15.80;100553.00;;;;4836028;29;20050;-78
2022/02/24 09:44:18;;;;;;;0.00;0.00;;;;;15.90;100539.00;;;;4835722;29;20133;-79
2022/02/24 09:46:48;;;;;;;0.00;0.00;;;;;16.00;100547.00;;;;4834763;29;20082;-80
2022/02/24 09:49:20;;;;;;;0.00;0.00;;;;;16.20;100545.00;;;;4835010;29;20050;-78
2022/02/24 09:51:50;;;;;;;0.00;0.00;;;;;16.40;100539.00;;;;4835857;29;20045;-78
2022/02/24 09:54:19;;;;;;;0.00;0.00;;;;;16.60;100542.00;;;;4836059;29;20056;-79
2022/02/24 09:56:50;;;;;;;0.00;0.00;;;;;16.80;100545.00;;;;4836511;29;20049;-79
2022/02/24 09:59:20;;;;;;;0.00;0.00;;;;;16.90;100553.00;;;;4836007;29;20046;-80
2022/02/24 10:01:51;;;;;;;0.00;0.00;;;;;17.20;100536.00;;;;4835929;29;20053;-79
2022/02/24 10:04:23;;;;;;;0.00;0.00;;;;;17.40;100552.00;;;;4836250;29;20065;-79
2022/02/24 10:06:52;;;;;;;;;;;;;17.50;100562.00;;;;4836270;29;20116;-78
2022/02/24 10:09:31;;;;;;;0.00;0.00;;;;;17.80;100547.00;;;;4836500;29;20546;-79
2022/02/24 10:12:10;;;;;;;0.00;0.00;;;;;17.90;100542.00;;;;4835534;29;20073;-78
2022/02/24 10:14:40;;;;;;;0.10;0.10;;;;;18.00;100551.00;;;;4835833;29;20102;-78
2022/02/24 10:17:10;;;;;;;0.00;0.00;;;;;18.90;100529.00;;;;4835671;29;20394;-79
2022/02/24 10:19:47;;;;;;;0.00;0.00;;;;;22.00;100381.00;;;;4834931;29;20459;-78
2022/02/24 10:22:29;;;;;;;0.00;0.00;;;;;26.40;100382.00;;;;4836172;29;20150;-79
2022/02/24 10:25:06;;;;;;;0.00;0.00;;;;;28.20;100362.00;;;;4835614;29;20050;-80
2022/02/24 10:27:42;;;;;;;0.00;0.00;;;;;29.30;100358.00;;;;4835460;29;20049;-78
2022/02/24 10:30:16;;;;;;;0.32;0.32;;;;;29.90;100368.00;;;;4835431;29;20065;-77
2022/02/24 10:32:52;;;;;;;0.00;0.00;;;;;30.70;100347.00;;;;4839189;29;20073;-78
2022/02/24 10:35:40;;;;;;;0.00;0.00;;;;;31.40;100361.00;;;;4838914;29;20065;-78
2022/02/24 10:38:12;;;;;;;0.20;0.20;;;;;31.70;100347.00;;;;4838988;29;20099;-75
2022/02/24 10:40:43;;;;;;;0.00;0.00;;;;;31.60;100344.00;;;;4838279;29;20054;-76
2022/02/24 10:43:12;;;;;;;;;;;;;31.70;100351.00;;;;4838301;29;20481;-75
2022/02/24 10:45:44;;;;;;;0.00;0.00;;;;;32.10;100338.00;;;;4837025;29;19928;-76
2022/02/24 10:48:14;;;;;;;0.00;0.00;;;;;32.70;100335.00;;;;4839108;29;20131;-76
2022/02/24 10:50:55;;;;;;;0.00;0.00;;;;;33.20;100341.00;;;;4838077;29;20050;-76
2022/02/24 10:53:33;;;;;;;0.00;0.00;;;;;33.20;100333.00;;;;4839032;29;20045;-77
2022/02/24 10:56:12;;;;;;;0.00;0.00;;;;;32.90;100335.00;;;;4836900;29;20106;-76
2022/02/24 10:58:46;;;;;;;0.00;0.00;;;;;33.50;100326.00;;;;4838292;29;20429;-76
2022/02/24 11:01:22;;;;;;;0.00;0.00;;;;;33.00;100314.00;;;;4839330;29;20053;-76
2022/02/24 11:03:59;;;;;;;0.10;0.10;;;;;32.90;100317.00;;;;4838541;29;20121;-76
2022/02/24 11:06:34;;;;;;;0.00;0.00;;;;;32.90;100309.00;;;;4838180;29;20391;-76
2022/02/24 11:09:08;;;;;;;0.00;0.00;;;;;33.80;100325.00;;;;4836500;29;20061;-78
2022/02/24 11:11:38;;;;;;;0.00;0.00;;;;;33.10;100331.00;;;;4837985;29;20121;-77
2022/02/24 11:14:10;;;;;;;0.05;0.05;;;;;32.40;100341.00;;;;4839119;29;20050;-79
2022/02/24 11:16:40;;;;;;;0.00;0.00;;;;;31.90;100365.00;;;;4841082;29;20641;-76
2022/02/24 11:19:10;;;;;;;0.00;0.00;;;;;33.40;100345.00;;;;4841528;29;20130;-77
2022/02/24 11:21:43;;;;;;;0.00;0.00;;;;;33.50;100360.00;;;;4837067;29;20118;-81
2022/02/24 11:24:13;;;;;;;0.00;0.00;;;;;32.60;100380.00;;;;4838236;29;20085;-79
2022/02/24 11:27:07;;;;;;;0.00;0.00;;;;;33.40;100378.00;;;;4838252;29;20058;-81
2022/02/24 11:29:47;;;;;;;0.00;0.00;;;;;33.70;100390.00;;;;4836996;29;20593;-77
2022/02/24 11:32:22;;;;;;;0.00;0.00;;;;;33.20;100406.00;;;;4837838;29;20418;-77
2022/02/24 11:35:00;;;;;;;0.13;0.13;;;;;33.20;100408.00;;;;4836974;29;20056;-79
2022/02/24 11:37:48;;;;;;;0.00;0.00;;;;;33.30;100396.00;;;;4838473;29;20069;-79
2022/02/24 11:40:17;;;;;;;0.00;0.00;;;;;33.30;100413.00;;;;4838590;29;20094;-77
2022/02/24 11:43:01;;;;;;;0.03;0.03;;;;;32.80;100415.00;;;;4837268;29;20528;-79
2022/02/24 11:45:54;;;;;;;0.05;0.00;;;;;33.10;100421.00;;;;4837531;29;21250;-77
2022/02/24 11:48:30;;;;;;;0.30;0.30;;;;;33.10;100413.00;;;;4838182;29;20124;-77
2022/02/24 11:51:08;;;;;;;0.00;0.00;;;;;33.40;100405.00;;;;4838004;29;20050;-79
2022/02/24 11:53:40;;;;;;;0.00;0.00;;;;;33.00;100424.00;;;;4837940;29;20480;-77
2022/02/24 11:56:18;;;;;;;0.00;0.00;;;;;33.10;100450.00;;;;4837986;29;20455;-78
2022/02/24 11:58:58;;;;;;;0.00;0.00;;;;;33.30;100446.00;;;;4838314;29;20058;-77
2022/02/24 12:01:35;;;;;;;0.00;0.00;;;;;33.70;100461.00;;;;4837276;29;20042;-76
2022/02/24 12:04:27;;;;;;;3.10;1.33;;;;;32.90;100471.00;;;;4838329;29;20414;-76
2022/02/24 12:07:22;;;;;;;0.00;0.00;;;;;32.40;100464.00;;;;4837711;29;20050;-77
2022/02/24 12:10:12;;;;;;;0.00;0.00;;;;;31.90;100461.00;;;;4841271;29;20433;-77
2022/02/24 12:12:41;;;;;;;0.10;0.10;;;;;29.50;100517.00;;;;4837186;29;20093;-79
2022/02/24 12:15:18;;;;;;;0.03;0.03;;;;;28.00;100545.00;;;;4837632;29;20053;-80
2022/02/24 12:17:50;;;;;;;0.90;0.20;;;;;28.10;100540.00;;;;4837334;29;20485;-80
2022/02/24 12:20:26;;;;;;;0.00;0.00;;;;;30.10;100520.00;;;;4837597;29;20494;-80
2022/02/24 12:22:56;;;;;;;0.65;0.38;;;;;31.10;100528.00;;;;4837592;29;20054;-78
2022/02/24 12:25:28;;;;;;;0.00;0.00;;;;;30.90;100531.00;;;;4837682;29;20053;-80
2022/02/24 12:28:04;;;;;;;0.00;0.00;;;;;31.70;100531.00;;;;4837200;29;20098;-78